Time;durP1;ratioP1;P1;durP2;ratioP2;P2;SDS_P1;SDS_P2;PMS_P1;PMS_P2;Temp;Humidity;BMP_temperature;BMP_pressure;BME280_temperature;BME280_humidity;BME280_pressure;Samples;Min_cycle;Max_cycle;Signal;HPM_P1;HPM_P2
2023/04/09 00:02:25;;;;;;;16.70;13.60;;;;;;;9.15;66.62;99696.66;5076320;28;42893;-77
2023/04/09 00:04:53;;;;;;;17.50;13.27;;;;;;;9.17;66.17;99702.69;5094361;28;43361;-77
2023/04/09 00:07:22;;;;;;;19.80;14.90;;;;;;;9.16;67.00;99690.41;5076284;28;40400;-77
2023/04/09 00:09:49;;;;;;;17.37;13.63;;;;;;;9.15;66.63;99696.66;5094236;28;41790;-77
2023/04/09 00:12:17;;;;;;;16.03;13.10;;;;;;;9.16;66.53;99698.34;5076046;28;42958;-77
2023/04/09 00:14:45;;;;;;;20.63;14.97;;;;;;;9.15;66.95;99686.91;5092649;28;41143;-77
2023/04/09 00:17:12;;;;;;;16.67;13.90;;;;;;;9.15;66.67;99691.34;5093761;28;40384;-77
2023/04/09 00:19:40;;;;;;;17.03;13.37;;;;;;;9.02;66.88;99663.75;5094481;28;41760;-77
2023/04/09 00:22:07;;;;;;;18.80;14.27;;;;;;;9.15;67.03;99683.44;5092758;28;42029;-77
2023/04/09 00:24:37;;;;;;;17.67;13.40;;;;;;;9.10;66.53;99683.63;5076035;28;41093;-77
2023/04/09 00:27:04;;;;;;;16.80;12.90;;;;;;;9.10;66.41;99688.03;5093569;28;41157;-77
2023/04/09 00:29:32;;;;;;;15.47;11.20;;;;;;;9.15;66.19;99694.00;5092908;28;42564;-77
2023/04/09 00:32:03;;;;;;;19.27;14.53;;;;;;;9.14;66.83;99690.50;5075899;28;41667;-77
2023/04/09 00:34:30;;;;;;;17.90;13.23;;;;;;;9.14;66.42;99689.63;5076130;28;42268;-77
2023/04/09 00:36:58;;;;;;;17.87;13.60;;;;;;;9.13;66.41;99690.56;5092428;28;39359;-76
2023/04/09 00:39:27;;;;;;;17.73;13.40;;;;;;;9.13;66.82;99691.41;5075641;28;40564;-77
2023/04/09 00:41:58;;;;;;;17.33;13.80;;;;;;;9.13;66.25;99688.78;5075385;28;42627;-77
2023/04/09 00:44:26;;;;;;;14.90;11.80;;;;;;;9.13;66.28;99688.78;5075554;28;41261;-77
2023/04/09 00:46:55;;;;;;;17.50;13.57;;;;;;;9.15;66.47;99686.06;5075770;28;40069;-78
2023/04/09 00:49:25;;;;;;;16.73;12.73;;;;;;;9.13;66.30;99683.50;5075426;28;40371;-77
2023/04/09 00:51:53;;;;;;;17.63;13.27;;;;;;;9.14;66.21;99685.22;5075745;28;41911;-77
2023/04/09 00:54:21;;;;;;;15.43;11.60;;;;;;;9.15;66.33;99696.66;5093777;28;43340;-77
2023/04/09 00:56:49;;;;;;;16.63;12.03;;;;;;;9.16;66.11;99691.25;5093529;28;39996;-77
2023/04/09 00:59:19;;;;;;;14.53;11.23;;;;;;;9.07;66.09;99672.31;5075064;28;41106;-76
2023/04/09 01:01:47;;;;;;;14.87;12.23;;;;;;;9.16;65.93;99693.03;5075429;28;42505;-77
2023/04/09 01:04:15;;;;;;;18.83;14.40;;;;;;;9.15;66.38;99691.34;5092517;28;42296;-77
2023/04/09 01:06:51;;;;;;;17.13;13.27;;;;;;;9.12;65.93;99686.19;5075550;28;39347;-77
2023/04/09 01:09:27;;;;;;;14.90;12.10;;;;;;;9.09;66.21;99686.31;5092046;28;40718;-77
2023/04/09 01:12:10;;;;;;;14.27;11.77;;;;;;;9.16;66.23;99693.03;5088778;28;44418;-77
2023/04/09 01:14:49;;;;;;;16.90;12.73;;;;;;;9.15;65.78;99697.47;5090188;28;42405;-77
2023/04/09 01:17:24;;;;;;;15.20;11.90;;;;;;;9.10;66.00;99682.75;5089701;28;41859;-77
2023/04/09 01:20:02;;;;;;;14.43;11.83;;;;;;;9.08;66.14;99684.59;5089030;28;42622;-77
2023/04/09 01:22:41;;;;;;;17.43;13.73;;;;;;;9.13;65.84;99687.91;5075055;28;41868;-77
2023/04/09 01:25:22;;;;;;;17.23;13.63;;;;;;;9.11;66.34;99672.13;5089628;28;43164;-77
2023/04/09 01:28:00;;;;;;;18.33;13.83;;;;;;;9.10;66.46;99677.47;5090169;28;41065;-77
2023/04/09 01:30:30;;;;;;;19.43;14.80;;;;;;;9.08;66.83;99679.31;5074845;28;40994;-77
2023/04/09 01:32:59;;;;;;;19.27;15.10;;;;;;;9.06;67.23;99673.22;5091682;28;42654;-77
2023/04/09 01:35:28;;;;;;;19.50;15.80;;;;;;;9.06;67.41;99676.75;5091659;28;42104;-77
2023/04/09 01:37:57;;;;;;;19.07;15.37;;;;;;;9.05;67.27;99671.50;5074903;28;39251;-77
2023/04/09 01:40:25;;;;;;;20.90;16.00;;;;;;;9.05;67.20;99679.44;5091379;28;41747;-77
2023/04/09 01:42:54;;;;;;;16.97;13.93;;;;;;;9.06;67.26;99682.03;5074461;28;42908;-77
2023/04/09 01:45:23;;;;;;;20.67;15.77;;;;;;;9.07;67.62;99682.88;5074435;28;42309;-77
2023/04/09 01:47:55;;;;;;;18.77;15.30;;;;;;;9.04;67.90;99678.59;5091340;28;40816;-77
2023/04/09 01:50:23;;;;;;;18.23;14.97;;;;;;;9.06;67.82;99681.16;5088698;28;41842;-77
2023/04/09 01:52:51;;;;;;;20.73;15.23;;;;;;;9.04;67.81;99681.22;5074459;28;41787;-77
2023/04/09 01:55:19;;;;;;;19.43;14.77;;;;;;;9.05;67.73;99682.09;5091192;28;41175;-77
2023/04/09 01:57:47;;;;;;;18.13;14.77;;;;;;;9.04;67.91;99673.28;5074658;28;39938;-77
2023/04/09 02:00:16;;;;;;;20.03;15.67;;;;;;;8.97;67.97;99672.72;5074488;28;40938;-77
2023/04/09 02:02:49;;;;;;;18.27;14.60;;;;;;;9.05;67.88;99679.44;5092445;28;42877;-76
2023/04/09 02:05:21;;;;;;;18.43;14.23;;;;;;;8.86;67.68;99648.53;5087976;28;43015;-77
2023/04/09 02:07:54;;;;;;;19.20;14.63;;;;;;;9.07;67.35;99686.38;5089406;28;41914;-76
2023/04/09 02:10:26;;;;;;;20.40;15.43;;;;;;;9.05;67.84;99682.09;5087229;28;41625;-76
2023/04/09 02:12:56;;;;;;;19.20;15.73;;;;;;;9.02;67.93;99686.56;5074244;28;42863;-76
2023/04/09 02:15:25;;;;;;;19.43;15.00;;;;;;;9.02;67.81;99686.56;5073735;28;41218;-76
2023/04/09 02:17:53;;;;;;;20.17;15.63;;;;;;;8.97;67.77;99680.66;5091098;28;40033;-76
2023/04/09 02:20:22;;;;;;;17.43;13.40;;;;;;;9.02;67.57;99684.88;5074017;28;40973;-77
2023/04/09 02:22:50;;;;;;;18.40;14.47;;;;;;;9.02;67.48;99684.88;5073941;28;41695;-77
2023/04/09 02:25:17;;;;;;;17.33;13.57;;;;;;;8.99;67.59;99686.72;5090748;28;43292;-77
2023/04/09 02:27:45;;;;;;;16.40;13.33;;;;;;;9.01;67.91;99697.22;5073688;28;40163;-77
2023/04/09 02:30:13;;;;;;;17.00;13.53;;;;;;;9.00;67.39;99691.09;5073926;28;40772;-76
2023/04/09 02:32:41;;;;;;;18.77;14.73;;;;;;;8.94;67.90;99686.06;5073832;28;42693;-76
2023/04/09 02:35:09;;;;;;;16.40;12.60;;;;;;;8.99;67.38;99686.72;5092018;28;43112;-76
2023/04/09 02:37:39;;;;;;;19.40;13.70;;;;;;;9.02;67.49;99690.16;5090747;28;40786;-76
2023/04/09 02:40:08;;;;;;;18.53;14.47;;;;;;;8.99;67.77;99681.44;5090536;28;40536;-76
2023/04/09 02:42:35;;;;;;;18.53;13.83;;;;;;;9.00;67.35;99687.59;5090482;28;42823;-77
2023/04/09 02:45:03;;;;;;;17.40;13.20;;;;;;;9.01;67.31;99689.31;5073636;28;41170;-77
2023/04/09 02:47:33;;;;;;;15.07;12.33;;;;;;;8.88;67.37;99662.56;5073449;28;39998;-77
2023/04/09 02:50:01;;;;;;;16.63;13.70;;;;;;;9.00;67.40;99685.81;5090676;28;41740;-76
2023/04/09 02:52:32;;;;;;;18.47;14.07;;;;;;;8.99;67.52;99684.09;5073836;28;42853;-77
2023/04/09 02:55:01;;;;;;;18.30;14.60;;;;;;;8.99;67.55;99680.59;5073424;28;42343;-77
2023/04/09 02:57:29;;;;;;;17.53;13.53;;;;;;;8.99;67.44;99681.44;5073784;28;39843;-76
2023/04/09 02:59:57;;;;;;;18.80;14.43;;;;;;;8.98;67.68;99682.38;5090626;28;42672;-76
2023/04/09 03:02:24;;;;;;;19.50;15.10;;;;;;;8.96;67.97;99676.28;5090361;28;43327;-76
2023/04/09 03:04:53;;;;;;;22.30;16.50;;;;;;;8.96;68.34;99675.41;5090390;28;43279;-78
2023/04/09 03:07:20;;;;;;;21.10;16.60;;;;;;;8.94;68.79;99672.84;5090404;28;40081;-78
2023/04/09 03:09:48;;;;;;;23.43;16.80;;;;;;;8.93;68.58;99671.13;5073750;28;40714;-78
2023/04/09 03:12:19;;;;;;;23.23;17.43;;;;;;;8.93;69.04;99670.25;5073136;28;41914;-77
2023/04/09 03:14:46;;;;;;;22.40;15.63;;;;;;;8.93;68.46;99671.13;5090018;28;42118;-77
2023/04/09 03:17:15;;;;;;;23.17;17.67;;;;;;;8.91;69.25;99672.97;5073737;28;40090;-77
2023/04/09 03:19:42;;;;;;;23.33;17.50;;;;;;;8.88;69.83;99661.69;5073595;28;41766;-77
2023/04/09 03:22:10;;;;;;;22.33;16.90;;;;;;;8.87;69.75;99666.13;5075331;28;41470;-77
2023/04/09 03:24:39;;;;;;;22.30;17.27;;;;;;;8.87;69.54;99666.13;5076933;28;41260;-77
2023/04/09 03:27:07;;;;;;;21.47;16.27;;;;;;;8.74;69.41;99641.16;5076528;28;39695;-77
2023/04/09 03:29:37;;;;;;;21.37;16.23;;;;;;;8.46;70.11;99590.44;5093788;28;41781;-77
2023/04/09 03:32:05;;;;;;;21.10;16.50;;;;;;;8.90;69.83;99662.50;5076922;28;41817;-77
2023/04/09 03:34:33;;;;;;;22.33;15.97;;;;;;;8.90;69.67;99655.41;5076909;28;42400;-77
2023/04/09 03:37:01;;;;;;;20.20;15.93;;;;;;;8.90;69.67;99659.84;5093480;28;40200;-76
2023/04/09 03:39:31;;;;;;;21.67;16.93;;;;;;;8.89;69.89;99658.13;5094073;28;41442;-77
2023/04/09 03:42:00;;;;;;;18.57;14.90;;;;;;;8.88;69.49;99657.28;5076342;28;41493;-77
2023/04/09 03:44:33;;;;;;;22.67;16.73;;;;;;;8.87;70.29;99655.56;5090362;28;43501;-77
2023/04/09 03:47:08;;;;;;;24.13;18.30;;;;;;;8.78;70.71;99640.06;5076540;28;40134;-77
2023/04/09 03:49:37;;;;;;;23.23;17.70;;;;;;;8.86;70.56;99659.13;5090274;28;41703;-77
2023/04/09 03:52:16;;;;;;;23.60;17.90;;;;;;;8.81;70.55;99645.22;5076653;28;42891;-77
2023/04/09 03:54:48;;;;;;;21.47;16.73;;;;;;;8.83;71.15;99656.59;5076632;28;41400;-77
2023/04/09 03:57:21;;;;;;;22.00;17.00;;;;;;;8.80;70.94;99654.06;5076217;28;38921;-77
2023/04/09 03:59:51;;;;;;;20.67;16.37;;;;;;;8.81;70.98;99655.78;5076519;28;41162;-77
2023/04/09 04:02:25;;;;;;;20.53;16.30;;;;;;;8.80;70.78;99661.13;5076076;28;44262;-77
2023/04/09 04:05:00;;;;;;;21.37;16.23;;;;;;;8.80;70.77;99669.91;5076536;28;41215;-78
2023/04/09 04:07:32;;;;;;;22.67;16.97;;;;;;;8.79;71.17;99667.34;5091129;28;40079;-76
2023/04/09 04:10:08;;;;;;;20.97;17.10;;;;;;;8.73;71.06;99663.19;5089689;28;41734;-77
2023/04/09 04:12:36;;;;;;;22.20;15.93;;;;;;;8.76;71.81;99663.06;5075980;28;41632;-77
2023/04/09 04:15:09;;;;;;;21.10;16.97;;;;;;;8.74;71.54;99664.91;5075645;28;42201;-77
2023/04/09 04:17:52;;;;;;;24.47;18.37;;;;;;;8.73;71.80;99665.84;5091214;28;40796;-77
2023/04/09 04:20:35;;;;;;;23.40;17.17;;;;;;;8.74;71.97;99666.69;5076018;28;41018;-77
2023/04/09 04:23:08;;;;;;;20.63;16.03;;;;;;;8.74;72.08;99664.91;5091492;28;42831;-77
2023/04/09 04:25:41;;;;;;;22.10;16.10;;;;;;;8.73;72.12;99676.41;5075674;28;40859;-77
2023/04/09 04:28:10;;;;;;;22.73;17.60;;;;;;;8.72;72.79;99672.03;5092974;28;40323;-76
2023/04/09 04:30:42;;;;;;;22.03;16.23;;;;;;;8.64;71.93;99660.94;5091060;28;41861;-77
2023/04/09 04:33:12;;;;;;;21.03;15.90;;;;;;;8.73;72.32;99678.19;5074981;28;42903;-76
2023/04/09 04:35:46;;;;;;;22.33;17.63;;;;;;;8.63;72.04;99668.00;5092395;28;41324;-77
2023/04/09 04:38:32;;;;;;;19.70;15.23;;;;;;;8.65;72.00;99660.03;5092749;28;39856;-77
2023/04/09 04:41:03;;;;;;;19.40;15.60;;;;;;;8.73;71.76;99681.69;5089891;28;41641;-77
2023/04/09 04:43:34;;;;;;;24.73;17.97;;;;;;;8.71;72.29;99664.19;5075490;28;41778;-77
2023/04/09 04:46:02;;;;;;;20.47;14.83;;;;;;;8.73;71.70;99679.03;5075680;28;41259;-77
2023/04/09 04:48:33;;;;;;;22.00;16.07;;;;;;;8.77;71.80;99680.63;5075519;28;40421;-77
2023/04/09 04:51:02;;;;;;;19.17;14.47;;;;;;;8.80;71.34;99675.22;5092444;28;40602;-77
2023/04/09 04:53:40;;;;;;;16.93;13.83;;;;;;;8.83;71.39;99687.44;5075688;28;41846;-77
2023/04/09 04:56:13;;;;;;;17.37;13.83;;;;;;;8.84;71.10;99690.00;5075572;28;42580;-77
2023/04/09 04:58:48;;;;;;;18.13;14.90;;;;;;;8.76;71.41;99673.63;5075769;28;40248;-77
2023/04/09 05:01:18;;;;;;;17.93;13.83;;;;;;;8.77;71.15;99680.63;5092614;28;42620;-77
2023/04/09 05:03:47;;;;;;;18.53;14.83;;;;;;;8.90;70.80;99695.03;5075031;28;41564;-77
2023/04/09 05:06:28;;;;;;;23.07;16.60;;;;;;;8.89;70.82;99682.75;5075649;28;41094;-76
2023/04/09 05:08:58;;;;;;;21.13;15.33;;;;;;;8.98;70.71;99695.56;5075390;28;38829;-77
2023/04/09 05:11:28;;;;;;;19.73;15.70;;;;;;;9.00;71.08;99688.44;5092320;28;41916;-77
2023/04/09 05:13:55;;;;;;;19.67;15.30;;;;;;;9.09;70.67;99691.59;5075162;28;42009;-77
2023/04/09 05:16:24;;;;;;;20.27;15.90;;;;;;;9.14;70.90;99697.56;5092042;28;43321;-78
2023/04/09 05:19:03;;;;;;;24.00;17.57;;;;;;;9.23;70.89;99691.88;5075340;28;39017;-77
2023/04/09 05:21:31;;;;;;;18.73;15.70;;;;;;;9.32;70.54;99692.31;5075059;28;41732;-77
2023/04/09 05:23:59;;;;;;;19.97;15.23;;;;;;;9.42;69.91;99698.06;5091955;28;43737;-77
2023/04/09 05:26:30;;;;;;;20.03;15.77;;;;;;;9.54;70.08;99692.22;5074435;28;40968;-77
2023/04/09 05:28:59;;;;;;;22.23;17.87;;;;;;;9.62;69.79;99690.09;5074891;28;41238;-77
2023/04/09 05:31:27;;;;;;;21.10;16.30;;;;;;;9.66;69.85;99694.31;5092059;28;42602;-77
2023/04/09 05:34:07;;;;;;;21.63;16.93;;;;;;;9.67;69.85;99695.16;5074438;28;43010;-76
2023/04/09 05:36:40;;;;;;;20.67;16.13;;;;;;;9.66;69.85;99704.88;5075107;28;41453;-77
2023/04/09 05:39:08;;;;;;;22.47;17.63;;;;;;;9.62;70.32;99708.63;5092909;28;40802;-77
2023/04/09 05:41:37;;;;;;;22.33;17.90;;;;;;;9.58;70.38;99709.66;5091559;28;41906;-77
2023/04/09 05:44:25;;;;;;;22.07;16.23;;;;;;;9.58;70.66;99712.31;5090388;28;41652;-77
2023/04/09 05:46:58;;;;;;;20.53;15.90;;;;;;;9.56;70.36;99711.53;5074117;28;42539;-77
2023/04/09 05:49:34;;;;;;;22.03;17.10;;;;;;;9.55;70.27;99717.72;5075064;28;39863;-77
2023/04/09 05:52:04;;;;;;;22.13;16.83;;;;;;;9.59;69.95;99719.31;5074557;28;40994;-76
2023/04/09 05:54:33;;;;;;;19.63;16.77;;;;;;;9.40;70.08;99691.97;5074554;28;43084;-76
2023/04/09 05:57:01;;;;;;;21.83;17.63;;;;;;;9.17;70.06;99660.41;5074152;28;42311;-77
2023/04/09 05:59:30;;;;;;;20.80;17.10;;;;;;;9.55;69.79;99723.03;5091678;28;39716;-77
2023/04/09 06:01:57;;;;;;;22.13;17.73;;;;;;;9.64;69.57;99722.59;5074069;28;42003;-77
2023/04/09 06:04:25;;;;;;;19.40;16.80;;;;;;;9.67;69.43;99727.75;5091435;28;41579;-77
2023/04/09 06:06:58;;;;;;;21.13;17.47;;;;;;;9.80;68.60;99724.56;5074277;28;41342;-77
2023/04/09 06:09:27;;;;;;;22.30;17.73;;;;;;;9.77;67.83;99714.16;5074656;28;40425;-76
2023/04/09 06:11:54;;;;;;;20.87;16.13;;;;;;;9.89;67.46;99729.47;5091102;28;42042;-78
2023/04/09 06:14:22;;;;;;;22.13;17.43;;;;;;;9.93;66.85;99737.16;5091952;28;43753;-77
2023/04/09 06:16:50;;;;;;;20.63;16.57;;;;;;;10.01;66.65;99732.38;5089200;28;42462;-76
2023/04/09 06:19:18;;;;;;;20.27;16.47;;;;;;;10.09;66.67;99739.97;5090962;28;41072;-77
2023/04/09 06:21:46;;;;;;;19.63;16.47;;;;;;;10.20;66.02;99739.50;5091113;28;41855;-76
2023/04/09 06:24:16;;;;;;;19.57;16.33;;;;;;;10.23;65.40;99742.88;5090649;28;42935;-77
2023/04/09 06:26:43;;;;;;;20.70;16.07;;;;;;;10.22;65.24;99743.81;5074071;28;41471;-77
2023/04/09 06:29:11;;;;;;;20.27;16.80;;;;;;;10.25;64.97;99746.31;5091914;28;40131;-77
2023/04/09 06:31:39;;;;;;;19.50;15.90;;;;;;;10.32;64.99;99747.72;5090717;28;40761;-77
2023/04/09 06:34:07;;;;;;;18.23;16.13;;;;;;;10.19;64.17;99709.53;5073669;28;41597;-77
2023/04/09 06:36:36;;;;;;;18.63;16.30;;;;;;;10.68;64.21;99752.19;5091110;28;43152;-76
2023/04/09 06:39:04;;;;;;;18.07;14.80;;;;;;;10.68;63.84;99723.03;5090770;28;38970;-77
2023/04/09 06:41:33;;;;;;;18.27;15.00;;;;;;;11.07;63.24;99758.19;5090466;28;42661;-77
2023/04/09 06:44:08;;;;;;;19.47;15.97;;;;;;;11.25;62.79;99771.47;5090484;28;42658;-77
2023/04/09 06:46:35;;;;;;;19.37;16.47;;;;;;;11.43;61.70;99784.63;5074112;28;41388;-77
2023/04/09 06:49:03;;;;;;;18.20;15.90;;;;;;;11.71;60.83;99781.41;5073746;28;38936;-78
2023/04/09 06:51:31;;;;;;;19.07;15.80;;;;;;;12.24;60.05;99780.34;5091957;28;42531;-77
2023/04/09 06:53:59;;;;;;;18.50;15.37;;;;;;;12.63;58.00;99792.38;5073706;28;41898;-78
2023/04/09 06:56:27;;;;;;;17.63;15.40;;;;;;;12.79;57.49;99803.88;5091593;28;42213;-77
2023/04/09 06:58:56;;;;;;;18.07;15.60;;;;;;;12.57;56.49;99737.78;5094406;28;40961;-77
2023/04/09 07:01:25;;;;;;;16.77;14.93;;;;;;;12.90;56.81;99785.50;5094140;28;41893;-77
2023/04/09 07:03:53;;;;;;;17.70;15.03;;;;;;;13.08;56.21;99800.41;5095118;28;43739;-77
2023/04/09 07:06:21;;;;;;;18.50;15.67;;;;;;;13.08;56.07;99803.09;5095019;28;42275;-77
2023/04/09 07:08:49;;;;;;;16.50;14.70;;;;;;;12.93;55.17;99790.66;5094898;28;41908;-78
2023/04/09 07:11:17;;;;;;;18.43;15.77;;;;;;;12.94;55.03;99808.31;5076518;28;41133;-77
2023/04/09 07:13:45;;;;;;;17.70;14.60;;;;;;;12.97;55.27;99807.31;5076554;28;42194;-77
2023/04/09 07:16:14;;;;;;;17.00;14.90;;;;;;;13.03;54.89;99812.25;5076236;28;41209;-77
2023/04/09 07:18:42;;;;;;;18.70;15.87;;;;;;;13.14;54.15;99813.38;5093389;28;40107;-77
2023/04/09 07:21:09;;;;;;;17.63;15.23;;;;;;;13.16;53.67;99811.50;5093729;28;41806;-77
2023/04/09 07:23:37;;;;;;;16.93;15.00;;;;;;;13.38;53.88;99819.06;5093467;28;43762;-77
2023/04/09 07:26:06;;;;;;;16.80;15.00;;;;;;;13.62;54.25;99820.28;5093390;28;42288;-77
2023/04/09 07:28:34;;;;;;;17.87;14.97;;;;;;;13.85;53.09;99829.56;5093339;28;39909;-78
2023/04/09 07:31:02;;;;;;;17.40;14.37;;;;;;;13.99;52.44;99834.91;5093182;28;42714;-78
2023/04/09 07:33:32;;;;;;;16.00;14.30;;;;;;;14.29;52.75;99829.50;5092962;28;41860;-77
2023/04/09 07:36:00;;;;;;;16.93;15.13;;;;;;;14.60;52.19;99836.44;5093170;28;42345;-78
2023/04/09 07:38:29;;;;;;;17.10;15.13;;;;;;;15.04;51.14;99835.41;5093121;28;38913;-77
2023/04/09 07:40:57;;;;;;;17.73;14.63;;;;;;;15.62;51.31;99820.88;5094504;28;41978;-78
2023/04/09 07:43:25;;;;;;;16.33;14.60;;;;;;;16.26;49.36;99843.19;5094267;28;43046;-78
2023/04/09 07:45:52;;;;;;;17.23;15.37;;;;;;;16.52;50.77;99837.69;5093183;28;42230;-77
2023/04/09 07:48:20;;;;;;;16.93;15.13;;;;;;;16.72;48.22;99849.66;5092791;28;40180;-78
2023/04/09 07:50:50;;;;;;;16.00;14.30;;;;;;;17.17;45.61;99866.03;5093205;28;40714;-78
2023/04/09 07:53:18;;;;;;;15.40;13.57;;;;;;;17.90;44.60;99871.25;5092762;28;41784;-78
2023/04/09 07:55:45;;;;;;;15.47;13.87;;;;;;;18.85;42.19;99887.00;5092868;28;43259;-77
2023/04/09 07:58:14;;;;;;;14.10;12.63;;;;;;;19.88;40.36;99890.16;5075818;28;41396;-78
2023/04/09 08:00:42;;;;;;;15.27;13.73;;;;;;;20.63;38.57;99911.50;5075925;28;42001;-77
2023/04/09 08:03:10;;;;;;;15.30;13.80;;;;;;;21.91;37.28;99916.09;5092968;28;42939;-78
2023/04/09 08:05:38;;;;;;;15.40;14.00;;;;;;;22.75;35.06;99909.84;5094120;28;42300;-78
2023/04/09 08:08:08;;;;;;;14.60;13.20;;;;;;;23.35;34.27;99925.69;5093044;28;40607;-78
2023/04/09 08:10:36;;;;;;;14.73;13.33;;;;;;;23.60;33.55;99925.84;5075861;28;40746;-78
2023/04/09 08:13:03;;;;;;;14.33;13.07;;;;;;;23.79;33.12;99924.84;5092386;28;42913;-78
2023/04/09 08:15:31;;;;;;;14.87;13.50;;;;;;;23.97;33.05;99920.31;5093578;28;43005;-78
2023/04/09 08:18:01;;;;;;;14.37;13.00;;;;;;;24.36;32.14;99925.38;5092768;28;39056;-78
2023/04/09 08:20:29;;;;;;;15.47;13.90;;;;;;;24.92;31.53;99924.03;5093609;28;43310;-78
2023/04/09 08:22:57;;;;;;;15.30;13.90;;;;;;;24.80;31.28;99925.31;5094083;28;42921;-78
2023/04/09 08:25:27;;;;;;;15.00;13.60;;;;;;;24.69;30.85;99908.34;5094308;28;43068;-78
2023/04/09 08:27:55;;;;;;;15.37;13.97;;;;;;;24.83;30.64;99884.38;5092371;28;39222;-78
2023/04/09 08:30:23;;;;;;;14.73;13.53;;;;;;;25.64;30.29;99923.53;5092516;28;40783;-79
2023/04/09 08:32:52;;;;;;;15.50;14.03;;;;;;;25.85;28.59;99936.59;5075454;28;41806;-79
2023/04/09 08:35:20;;;;;;;14.07;12.90;;;;;;;27.47;28.10;99927.38;5075298;28;41188;-79
2023/04/09 08:37:48;;;;;;;14.40;13.20;;;;;;;28.86;25.94;99947.97;5092462;28;39266;-78
2023/04/09 08:40:16;;;;;;;13.53;12.37;;;;;;;30.08;25.41;99945.56;5092491;28;42067;-79
2023/04/09 08:42:46;;;;;;;13.77;12.67;;;;;;;31.14;23.55;99958.25;5075121;28;43402;-80
2023/04/09 08:45:14;;;;;;;14.50;13.30;;;;;;;31.48;22.37;99960.94;5075440;28;41731;-78
2023/04/09 08:47:43;;;;;;;13.43;12.33;;;;;;;31.37;22.70;99945.09;5075527;28;40008;-79
2023/04/09 08:50:11;;;;;;;13.10;11.93;;;;;;;31.12;22.28;99932.97;5093542;28;42953;-79
2023/04/09 08:52:40;;;;;;;12.67;11.67;;;;;;;31.77;22.31;99941.47;5092187;28;42578;-79
2023/04/09 08:55:09;;;;;;;12.02;11.10;;;;;;;32.54;21.20;99952.97;5092987;28;42248;-80
2023/04/09 08:57:38;;;;;;;12.65;11.65;;;;;;;34.02;20.30;99952.16;5075181;28;39472;-80
2023/04/09 09:00:09;;;;;;;10.77;9.90;;;;;;;35.08;19.23;99953.03;5092029;28;40742;-80
2023/04/09 09:02:38;;;;;;;12.57;11.48;;;;;;;35.49;19.07;99948.75;5089906;28;42803;-79
2023/04/09 09:05:06;;;;;;;12.00;10.93;;;;;;;35.66;18.32;99955.31;5091866;28;42318;-79
2023/04/09 09:07:34;;;;;;;11.25;10.35;;;;;;;35.82;18.65;99957.47;5092347;28;38872;-79
2023/04/09 09:10:03;;;;;;;10.45;9.65;;;;;;;36.05;18.90;99937.41;5091915;28;41986;-80
2023/04/09 09:12:32;;;;;;;9.90;9.10;;;;;;;35.94;17.60;99965.78;5075000;28;43009;-79
2023/04/09 09:15:00;;;;;;;11.02;10.13;;;;;;;34.12;18.67;99936.91;5093220;28;42386;-78
2023/04/09 09:17:30;;;;;;;10.25;9.45;;;;;;;34.41;20.13;99929.91;5074981;28;39959;-79
2023/04/09 09:19:58;;;;;;;12.32;11.43;;;;;;;33.89;19.11;99937.44;5091969;28;42112;-78
2023/04/09 09:22:27;;;;;;;11.93;10.88;;;;;;;33.12;18.89;99946.63;5093055;28;20231;-78
2023/04/09 09:24:56;;;;;;;10.15;9.35;;;;;;;32.31;20.09;99915.84;5075034;28;41091;-78
2023/04/09 09:27:35;;;;;;;9.70;8.93;;;;;;;31.95;20.88;99907.16;5092801;28;40676;-79
2023/04/09 09:30:05;;;;;;;10.30;9.50;;;;;;;32.53;20.07;99929.34;5075042;28;41641;-79
2023/04/09 09:32:34;;;;;;;11.45;10.55;;;;;;;33.37;18.68;99937.69;5091616;28;43292;-79
2023/04/09 09:35:05;;;;;;;11.75;10.85;;;;;;;33.60;18.31;99921.53;5091301;28;42776;-78
2023/04/09 09:37:34;;;;;;;10.80;9.90;;;;;;;33.84;18.90;99923.53;5090861;28;41269;-79
2023/04/09 09:40:03;;;;;;;10.27;9.48;;;;;;;34.37;18.27;99928.66;5091851;28;42083;-79
2023/04/09 09:42:31;;;;;;;10.00;9.20;;;;;;;34.27;17.92;99933.81;5091760;28;42923;-79
2023/04/09 09:45:01;;;;;;;9.17;8.47;;;;;;;33.00;18.73;99920.88;5091811;28;41954;-78
2023/04/09 09:47:30;;;;;;;9.97;9.17;;;;;;;32.87;18.86;99920.91;5091909;28;41053;-78
2023/04/09 09:50:00;;;;;;;9.23;8.52;;;;;;;33.22;18.97;99917.84;5074825;28;42121;-79
2023/04/09 09:52:29;;;;;;;10.35;9.48;;;;;;;33.40;19.58;99910.63;5091408;28;42515;-79
2023/04/09 09:55:03;;;;;;;9.20;8.50;;;;;;;33.55;18.26;99910.34;5092669;28;42458;-80
2023/04/09 09:57:31;;;;;;;8.77;7.97;;;;;;;32.62;18.22;99884.22;5074789;28;38982;-78
2023/04/09 10:00:02;;;;;;;7.97;7.37;;;;;;;32.24;18.15;99916.94;5092686;28;41576;-78
2023/04/09 10:02:43;;;;;;;8.40;7.70;;;;;;;32.41;19.20;99910.78;5090792;28;42655;-79
2023/04/09 10:05:13;;;;;;;8.67;7.90;;;;;;;32.50;18.50;99902.38;5074775;28;42593;-79
2023/04/09 10:07:42;;;;;;;9.00;8.30;;;;;;;32.86;18.74;99896.44;5074304;28;40535;-78
2023/04/09 10:10:10;;;;;;;9.20;8.50;;;;;;;33.22;17.71;99895.91;5091608;28;40792;-79
2023/04/09 10:12:40;;;;;;;8.85;8.15;;;;;;;33.25;18.35;99890.00;5091167;28;42861;-79
2023/04/09 10:15:10;;;;;;;8.83;8.07;;;;;;;32.99;17.90;99897.25;5092292;28;43173;-78
2023/04/09 10:17:38;;;;;;;8.63;7.93;;;;;;;32.92;17.58;99921.09;5091397;28;39838;-80
2023/04/09 10:20:14;;;;;;;8.98;8.27;;;;;;;32.69;17.12;99913.31;5091097;28;41039;-79
2023/04/09 10:22:46;;;;;;;8.17;7.57;;;;;;;31.19;18.49;99914.66;5089172;28;43250;-79
2023/04/09 10:25:14;;;;;;;8.20;7.60;;;;;;;30.23;19.71;99900.72;5074363;28;41447;-80
2023/04/09 10:27:44;;;;;;;7.73;7.13;;;;;;;29.18;20.11;99896.78;5090664;28;41146;-79
2023/04/09 10:30:31;;;;;;;8.07;7.37;;;;;;;31.08;20.09;99892.28;5074257;28;40921;-78
2023/04/09 10:33:10;;;;;;;8.27;7.67;;;;;;;32.31;18.55;99887.59;5088825;28;43696;-79
2023/04/09 10:35:39;;;;;;;8.60;7.90;;;;;;;31.67;18.52;99888.97;5074213;28;41049;-79
2023/04/09 10:38:09;;;;;;;7.83;7.23;;;;;;;32.74;17.88;99888.00;5090483;28;39997;-79
2023/04/09 10:40:41;;;;;;;8.60;7.90;;;;;;;31.76;18.09;99895.97;5090517;28;41830;-79
2023/04/09 10:43:10;;;;;;;7.70;7.10;;;;;;;30.12;19.09;99841.13;5088881;28;42615;-79
2023/04/09 10:45:42;;;;;;;8.60;7.90;;;;;;;29.36;20.78;99889.03;5090542;28;42087;-78
2023/04/09 10:48:14;;;;;;;8.00;7.40;;;;;;;28.33;21.22;99864.47;5090925;28;38645;-79
2023/04/09 10:50:45;;;;;;;7.60;7.00;;;;;;;28.64;22.66;99847.13;5073174;28;41203;-78
2023/04/09 10:53:23;;;;;;;7.97;7.27;;;;;;;30.62;19.63;99859.19;5089018;28;43806;-81
2023/04/09 10:55:52;;;;;;;7.70;7.10;;;;;;;32.26;19.48;99847.13;5087580;28;42339;-79
2023/04/09 10:58:20;;;;;;;7.17;6.57;;;;;;;33.21;18.51;99877.72;5090151;28;39927;-79
2023/04/09 11:00:49;;;;;;;7.83;7.17;;;;;;;34.62;16.88;99875.56;5090683;28;42248;-79
2023/04/09 11:03:26;;;;;;;7.55;6.95;;;;;;;35.79;15.76;99866.94;5090309;28;42881;-79
2023/04/09 11:06:04;;;;;;;7.47;6.88;;;;;;;36.51;15.11;99887.00;5087912;28;42301;-78
2023/04/09 11:08:33;;;;;;;6.95;6.45;;;;;;;36.47;15.11;99884.97;5089730;28;41148;-79
2023/04/09 11:11:02;;;;;;;6.72;6.22;;;;;;;37.28;15.36;99860.03;5090201;28;41787;-79
2023/04/09 11:13:31;;;;;;;6.75;6.25;;;;;;;38.09;14.80;99861.59;5090443;28;43390;-79
2023/04/09 11:16:02;;;;;;;6.63;6.13;;;;;;;38.50;13.98;99881.63;5074581;28;41377;-79
2023/04/09 11:18:32;;;;;;;6.43;5.93;;;;;;;39.07;13.88;99875.88;5090167;28;40736;-78
2023/04/09 11:21:03;;;;;;;5.32;4.93;;;;;;;39.93;14.22;99854.72;5087351;28;41697;-79
2023/04/09 11:23:32;;;;;;;5.32;4.93;;;;;;;40.61;12.00;99878.03;5073577;28;42058;-82
2023/04/09 11:26:00;;;;;;;5.72;5.32;;;;;;;40.41;11.53;99872.34;5073602;28;41065;-80
2023/04/09 11:28:28;;;;;;;5.40;5.00;;;;;;;37.59;12.58;99855.09;5090208;28;40298;-79
2023/04/09 11:30:56;;;;;;;5.90;5.40;;;;;;;36.11;13.74;99856.44;5090563;28;41988;-79
2023/04/09 11:33:31;;;;;;;5.70;5.30;;;;;;;34.20;14.93;99856.03;5090875;28;43357;-79
2023/04/09 11:35:59;;;;;;;5.20;4.83;;;;;;;32.50;16.07;99836.53;5073690;28;41197;-79
2023/04/09 11:38:31;;;;;;;6.40;5.90;;;;;;;32.77;16.08;99840.91;5091662;28;40063;-80